Time;durP1;ratioP1;P1;durP2;ratioP2;P2;SDS_P1;SDS_P2;PMS_P1;PMS_P2;Temp;Humidity;BMP_temperature;BMP_pressure;BME280_temperature;BME280_humidity;BME280_pressure;Samples;Min_cycle;Max_cycle;Signal;HPM_P1;HPM_P2
2023/04/11 00:02:18;;;;;;;3.03;2.00;;;12.00;1.00;;;;;;5028222;28;20375;-75
2023/04/11 00:04:44;;;;;;;4.72;2.05;;;12.00;1.00;;;;;;5032730;28;20399;-85
2023/04/11 00:07:10;;;;;;;4.47;2.05;;;12.00;1.00;;;;;;5031450;28;20025;-75
2023/04/11 00:09:36;;;;;;;3.80;2.30;;;12.00;1.00;;;;;;5018041;28;20038;-74
2023/04/11 00:12:03;;;;;;;2.90;1.98;;;11.90;1.00;;;;;;5030867;28;20025;-75
2023/04/11 00:14:33;;;;;;;3.90;2.03;;;11.90;1.00;;;;;;5024398;28;20034;-75
2023/04/11 00:17:00;;;;;;;4.65;2.65;;;11.80;1.00;;;;;;5029858;28;20038;-79
2023/04/11 00:19:27;;;;;;;3.88;2.13;;;11.80;1.00;;;;;;5028360;28;20049;-75
2023/04/11 00:21:57;;;;;;;5.20;2.05;;;11.70;1.00;;;;;;5030090;28;20022;-75
2023/04/11 00:24:24;;;;;;;2.97;1.98;;;11.70;1.00;;;;;;5029551;28;20065;-75
2023/04/11 00:26:51;;;;;;;3.50;1.85;;;11.60;1.00;;;;;;5028045;28;20447;-75
2023/04/11 00:29:17;;;;;;;3.10;2.35;;;11.60;1.00;;;;;;5025295;28;20045;-74
2023/04/11 00:31:43;;;;;;;3.30;1.95;;;11.60;1.00;;;;;;5031867;28;20033;-75
2023/04/11 00:34:09;;;;;;;8.15;2.42;;;11.60;1.00;;;;;;5031118;28;20049;-75
2023/04/11 00:36:36;;;;;;;4.00;2.35;;;11.50;1.00;;;;;;5025573;28;20041;-74
2023/04/11 00:39:02;;;;;;;5.40;2.45;;;11.50;1.00;;;;;;5027535;28;20042;-74
2023/04/11 00:41:28;;;;;;;8.50;2.15;;;11.40;1.00;;;;;;5029124;28;20049;-75
2023/04/11 00:43:56;;;;;;;3.90;1.77;;;11.40;1.00;;;;;;5030342;28;20113;-75
2023/04/11 00:46:24;;;;;;;3.88;2.05;;;11.40;1.00;;;;;;5030782;28;20037;-74
2023/04/11 00:48:51;;;;;;;6.90;2.50;;;11.30;1.00;;;;;;5022355;28;20034;-74
2023/04/11 00:51:19;;;;;;;4.15;2.20;;;11.20;1.00;;;;;;5024035;28;20034;-74
2023/04/11 00:53:45;;;;;;;2.95;1.92;;;11.20;1.00;;;;;;5031663;28;20033;-74
2023/04/11 00:56:12;;;;;;;3.33;1.95;;;11.20;1.00;;;;;;5030651;28;20056;-75
2023/04/11 00:58:41;;;;;;;4.15;1.83;;;11.10;1.00;;;;;;5026227;28;20050;-74
2023/04/11 01:01:08;;;;;;;2.30;1.40;;;11.10;1.00;;;;;;5027648;28;20049;-76
2023/04/11 01:03:38;;;;;;;3.08;1.60;;;11.10;1.00;;;;;;5028754;28;20490;-74
2023/04/11 01:06:06;;;;;;;3.22;2.08;;;11.00;1.00;;;;;;5028197;28;20036;-74
2023/04/11 01:08:35;;;;;;;3.13;1.88;;;11.00;1.00;;;;;;5035051;28;20034;-74
2023/04/11 01:11:04;;;;;;;4.45;1.70;;;11.00;1.00;;;;;;5029080;28;20448;-74
2023/04/11 01:13:35;;;;;;;2.92;1.77;;;10.90;1.00;;;;;;5031607;28;20386;-74
2023/04/11 01:16:03;;;;;;;4.50;2.30;;;10.90;1.00;;;;;;5027137;28;20038;-75
2023/04/11 01:18:29;;;;;;;3.67;1.67;;;10.90;1.00;;;;;;5029708;28;20033;-75
2023/04/11 01:20:56;;;;;;;5.60;1.52;;;10.90;1.00;;;;;;5030954;28;20026;-74
2023/04/11 01:23:24;;;;;;;2.50;1.38;;;10.90;1.00;;;;;;5030125;28;20498;-74
2023/04/11 01:25:51;;;;;;;3.38;2.22;;;10.90;1.00;;;;;;5022022;28;20042;-75
2023/04/11 01:28:17;;;;;;;2.17;0.98;;;10.90;1.00;;;;;;5029406;28;20034;-74
2023/04/11 01:30:44;;;;;;;4.70;1.30;;;10.90;1.00;;;;;;5035059;28;20052;-74
2023/04/11 01:33:15;;;;;;;1.75;0.85;;;10.90;1.00;;;;;;5032073;28;20395;-74
2023/04/11 01:35:42;;;;;;;2.15;0.80;;;10.90;1.00;;;;;;5035308;28;20034;-74
2023/04/11 01:38:09;;;;;;;2.38;1.40;;;10.90;1.00;;;;;;5024328;28;20033;-74
2023/04/11 01:40:36;;;;;;;1.90;1.25;;;10.90;1.00;;;;;;5034930;28;20045;-74
2023/04/11 01:43:03;;;;;;;4.10;1.27;;;10.80;1.00;;;;;;5034556;28;20414;-75
2023/04/11 01:45:30;;;;;;;3.25;1.27;;;10.80;1.00;;;;;;5035221;28;20037;-74
2023/04/11 01:47:56;;;;;;;3.55;1.35;;;10.90;1.00;;;;;;5022249;28;20356;-74
2023/04/11 01:50:23;;;;;;;2.55;1.30;;;10.80;1.00;;;;;;5027070;28;20037;-74
2023/04/11 01:52:50;;;;;;;2.33;1.17;;;10.80;1.00;;;;;;5028357;28;20052;-74
2023/04/11 01:55:17;;;;;;;2.58;1.40;;;10.70;1.00;;;;;;5024039;28;20029;-74
2023/04/11 01:57:43;;;;;;;3.03;1.75;;;10.70;1.00;;;;;;5030511;28;20053;-74
2023/04/11 02:00:10;;;;;;;2.85;1.50;;;10.70;1.00;;;;;;5041453;28;20057;-75
2023/04/11 02:02:40;;;;;;;4.10;1.17;;;10.60;1.00;;;;;;5040008;28;20042;-75
2023/04/11 02:05:08;;;;;;;5.70;1.30;;;10.60;1.00;;;;;;5034829;28;20046;-74
2023/04/11 02:07:35;;;;;;;3.13;1.45;;;10.60;1.00;;;;;;5029921;28;20046;-75
2023/04/11 02:10:02;;;;;;;4.75;1.27;;;10.60;1.00;;;;;;5032742;28;20049;-75
2023/04/11 02:12:28;;;;;;;2.95;1.48;;;10.60;1.00;;;;;;5026335;28;20050;-74
2023/04/11 02:14:54;;;;;;;5.95;1.25;;;10.50;1.00;;;;;;5033903;28;20025;-75
2023/04/11 02:17:24;;;;;;;3.25;1.33;;;10.50;1.00;;;;;;5032180;28;20048;-74
2023/04/11 02:19:51;;;;;;;2.47;1.30;;;10.50;1.00;;;;;;5029055;28;20045;-74
2023/04/11 02:22:17;;;;;;;2.15;1.17;;;10.30;1.00;;;;;;5022920;28;20378;-74
2023/04/11 02:24:45;;;;;;;2.47;1.30;;;10.30;8.40;;;;;;5029707;28;20044;-74
2023/04/11 02:27:11;;;;;;;2.28;1.33;;;10.20;16.50;;;;;;5031442;28;20189;-76
2023/04/11 02:29:37;;;;;;;2.58;1.00;;;10.10;14.30;;;;;;5034001;28;20040;-74
2023/04/11 02:32:03;;;;;;;3.25;1.15;;;10.00;13.70;;;;;;5029178;28;20034;-76
2023/04/11 02:34:29;;;;;;;3.30;1.17;;;10.00;13.40;;;;;;5027643;28;20049;-74
2023/04/11 02:36:55;;;;;;;2.67;1.30;;;9.90;2.80;;;;;;5025749;28;20033;-74
2023/04/11 02:39:23;;;;;;;3.95;0.75;;;9.80;10.60;;;;;;5027295;28;20042;-73
2023/04/11 02:41:49;;;;;;;1.88;0.88;;;9.80;25.70;;;;;;5021982;28;20065;-74
2023/04/11 02:44:17;;;;;;;2.25;0.70;;;9.80;28.70;;;;;;5030953;28;20033;-73
2023/04/11 02:46:44;;;;;;;2.72;0.75;;;9.70;5.40;;;;;;5037015;28;20038;-79
2023/04/11 02:49:10;;;;;;;2.70;0.80;;;9.60;1.00;;;;;;5023329;28;20041;-73
2023/04/11 02:51:37;;;;;;;1.92;0.57;;;9.50;1.00;;;;;;5029380;28;20097;-74
2023/04/11 02:54:05;;;;;;;1.98;0.57;;;9.30;1.00;;;;;;5029684;28;20078;-74
2023/04/11 02:56:37;;;;;;;2.80;0.50;;;9.20;5.90;;;;;;5032772;28;20041;-74
2023/04/11 02:59:06;;;;;;;2.88;0.80;;;9.10;8.20;;;;;;5029456;28;20062;-74
2023/04/11 03:01:33;;;;;;;1.70;0.65;;;8.90;20.30;;;;;;5031279;28;20440;-74
2023/04/11 03:03:59;;;;;;;1.75;0.52;;;8.90;48.20;;;;;;5033495;28;20046;-74
2023/04/11 03:06:34;;;;;;;2.67;1.02;;;8.80;70.20;;;;;;5019510;28;20517;-75
2023/04/11 03:09:02;;;;;;;3.92;1.52;;;8.70;93.60;;;;;;5042825;28;20041;-75
2023/04/11 03:11:29;;;;;;;3.33;0.93;;;8.60;99.90;;;;;;5025603;28;20034;-74
2023/04/11 03:13:55;;;;;;;5.40;2.13;;;8.60;99.90;;;;;;5039513;28;20056;-75
2023/04/11 03:16:21;;;;;;;2.20;0.75;;;8.40;99.90;;;;;;5040125;28;20387;-74
2023/04/11 03:18:48;;;;;;;3.25;0.82;;;8.40;99.90;;;;;;5028889;28;20479;-75
2023/04/11 03:21:14;;;;;;;3.17;0.68;;;8.40;99.90;;;;;;5036612;28;20100;-74
2023/04/11 03:23:43;;;;;;;2.90;0.65;;;8.40;99.90;;;;;;5020833;28;20475;-75
2023/04/11 03:26:10;;;;;;;2.50;0.73;;;8.40;99.90;;;;;;5027165;28;20037;-76
2023/04/11 03:28:36;;;;;;;3.55;0.70;;;8.40;99.90;;;;;;5031892;28;20470;-75
2023/04/11 03:31:02;;;;;;;2.08;0.80;;;8.40;99.90;;;;;;5030831;28;20087;-75
2023/04/11 03:33:29;;;;;;;3.67;0.60;;;8.50;99.90;;;;;;5031055;28;20036;-76
2023/04/11 03:35:55;;;;;;;3.58;0.80;;;8.50;99.90;;;;;;5030744;28;20041;-76
2023/04/11 03:38:22;;;;;;;2.85;0.73;;;8.30;99.90;;;;;;5031217;28;20029;-75
2023/04/11 03:40:48;;;;;;;2.58;0.90;;;8.30;99.90;;;;;;5030321;28;20037;-75
2023/04/11 03:43:18;;;;;;;2.25;0.88;;;8.20;99.90;;;;;;5024275;28;20403;-75
2023/04/11 03:45:45;;;;;;;2.25;0.93;;;8.20;99.90;;;;;;5030256;28;20036;-75
2023/04/11 03:48:29;;;;;;;1.58;0.52;;;8.30;99.90;;;;;;5027244;28;20041;-75
2023/04/11 03:51:00;;;;;;;4.95;1.02;;;8.20;99.90;;;;;;5036181;28;20046;-75
2023/04/11 03:53:35;;;;;;;2.08;1.02;;;8.20;99.90;;;;;;5031324;28;20033;-75
2023/04/11 03:56:13;;;;;;;4.05;1.20;;;8.30;99.90;;;;;;5027606;28;20045;-74
2023/04/11 03:58:39;;;;;;;3.85;1.05;;;8.20;99.90;;;;;;5018687;28;20058;-74
2023/04/11 04:01:05;;;;;;;7.28;1.00;;;8.20;99.90;;;;;;5032271;28;20049;-75
2023/04/11 04:03:32;;;;;;;3.20;1.05;;;8.20;99.90;;;;;;5021696;28;20052;-75
2023/04/11 04:05:59;;;;;;;12.05;1.13;;;8.10;99.90;;;;;;5026739;28;20467;-75
2023/04/11 04:08:25;;;;;;;1.85;0.70;;;8.10;99.90;;;;;;5030375;28;20041;-75
2023/04/11 04:10:52;;;;;;;11.52;1.23;;;8.10;99.90;;;;;;5029287;28;20475;-75
2023/04/11 04:13:18;;;;;;;2.00;1.17;;;8.10;99.90;;;;;;5030244;28;20037;-75
2023/04/11 04:15:51;;;;;;;5.50;1.58;;;8.10;99.90;;;;;;5026043;28;20041;-74
2023/04/11 04:18:21;;;;;;;5.60;1.00;;;8.10;99.90;;;;;;5022569;28;20037;-74
2023/04/11 04:20:48;;;;;;;3.50;1.60;;;8.10;99.90;;;;;;5022756;28;20060;-73
2023/04/11 04:23:16;;;;;;;3.40;1.40;;;8.10;99.90;;;;;;5027560;28;20066;-75
2023/04/11 04:26:04;;;;;;;5.20;1.85;;;8.10;99.90;;;;;;5025112;28;20402;-75
2023/04/11 04:28:32;;;;;;;9.00;1.88;;;8.10;99.90;;;;;;5031505;28;20034;-74
2023/04/11 04:31:01;;;;;;;4.03;1.52;;;8.10;99.90;;;;;;5030878;28;20041;-75
2023/04/11 04:33:32;;;;;;;4.28;1.40;;;8.10;99.90;;;;;;5025726;28;20506;-82
2023/04/11 04:36:01;;;;;;;4.38;1.42;;;8.10;99.90;;;;;;5025853;28;20038;-75
2023/04/11 04:38:30;;;;;;;3.03;1.50;;;8.20;99.90;;;;;;5013199;28;20784;-82
2023/04/11 04:40:58;;;;;;;7.53;1.67;;;8.20;99.90;;;;;;5029626;28;20056;-75
2023/04/11 04:43:31;;;;;;;5.72;1.65;;;8.20;99.90;;;;;;5031108;28;20045;-75
2023/04/11 04:46:05;;;;;;;4.20;1.98;;;8.30;99.90;;;;;;5024912;28;20046;-75
2023/04/11 04:48:40;;;;;;;6.03;2.63;;;8.40;99.90;;;;;;5038169;28;20044;-75
2023/04/11 04:51:09;;;;;;;5.85;2.00;;;8.40;99.90;;;;;;5041023;28;20394;-74
2023/04/11 04:53:37;;;;;;;5.03;2.00;;;8.40;99.90;;;;;;5025738;28;20041;-74
2023/04/11 04:56:05;;;;;;;6.13;2.17;;;8.30;99.90;;;;;;5029241;28;20491;-74
2023/04/11 04:58:34;;;;;;;7.25;1.77;;;8.30;99.90;;;;;;5025078;28;20041;-74
2023/04/11 05:01:03;;;;;;;5.25;2.03;;;8.30;99.90;;;;;;5020752;28;20042;-74
2023/04/11 05:03:34;;;;;;;4.97;1.92;;;8.30;99.90;;;;;;5023884;28;20046;-74
2023/04/11 05:06:01;;;;;;;6.07;2.60;;;8.30;99.90;;;;;;5021851;28;20388;-74
2023/04/11 05:08:28;;;;;;;6.28;2.53;;;8.30;99.90;;;;;;5023918;28;20057;-75
2023/04/11 05:10:59;;;;;;;6.53;2.80;;;8.30;99.90;;;;;;5021395;28;20369;-74
2023/04/11 05:13:25;;;;;;;7.15;2.75;;;8.30;99.90;;;;;;5040142;28;20033;-74
2023/04/11 05:15:53;;;;;;;5.38;2.50;;;8.20;99.90;;;;;;5027694;28;20046;-74
2023/04/11 05:18:19;;;;;;;5.38;2.40;;;8.30;99.90;;;;;;5024587;28;20382;-74
2023/04/11 05:20:46;;;;;;;8.07;2.78;;;8.30;99.90;;;;;;5030274;28;20053;-75
2023/04/11 05:23:17;;;;;;;8.23;3.53;;;8.30;99.90;;;;;;5034897;28;20489;-74
2023/04/11 05:25:44;;;;;;;8.57;2.65;;;8.40;99.90;;;;;;5026922;28;20049;-75
2023/04/11 05:28:12;;;;;;;9.55;3.63;;;8.40;99.90;;;;;;5024703;28;20468;-74
2023/04/11 05:30:38;;;;;;;8.05;3.28;;;8.40;99.90;;;;;;5033344;28;20046;-74
2023/04/11 05:33:05;;;;;;;8.45;3.30;;;8.40;99.90;;;;;;5022862;28;20360;-74
2023/04/11 05:35:32;;;;;;;10.82;4.28;;;8.40;99.90;;;;;;5029090;28;20525;-74
2023/04/11 05:37:58;;;;;;;9.00;3.47;;;8.40;99.90;;;;;;5030662;28;20052;-74
2023/04/11 05:40:24;;;;;;;10.48;3.90;;;8.50;99.90;;;;;;5027766;28;20057;-74
2023/04/11 05:42:51;;;;;;;5.18;2.35;;;8.50;99.90;;;;;;5043933;28;20046;-74
2023/04/11 05:45:18;;;;;;;8.18;4.50;;;8.50;99.90;;;;;;5024325;28;20042;-74
2023/04/11 05:47:44;;;;;;;8.43;1.67;;;8.60;99.90;;;;;;5028674;28;20046;-74
2023/04/11 05:50:10;;;;;;;4.85;2.47;;;8.70;99.90;;;;;;5023337;28;20034;-74
2023/04/11 05:52:36;;;;;;;7.20;2.30;;;8.60;99.90;;;;;;5027780;28;20025;-76
2023/04/11 05:55:03;;;;;;;8.70;2.55;;;8.70;99.90;;;;;;5029772;28;20038;-74
2023/04/11 05:57:29;;;;;;;4.13;1.73;;;8.70;99.90;;;;;;5031063;28;20033;-74
2023/04/11 05:59:55;;;;;;;10.55;2.55;;;8.80;99.90;;;;;;5029662;28;20049;-75
2023/04/11 06:02:22;;;;;;;6.82;2.15;;;8.80;99.90;;;;;;5029463;28;20041;-73
2023/04/11 06:04:48;;;;;;;8.27;2.28;;;8.80;99.90;;;;;;5027674;28;20049;-73
2023/04/11 06:07:14;;;;;;;6.07;2.42;;;8.90;99.90;;;;;;5025380;28;20036;-75
2023/04/11 06:09:41;;;;;;;7.40;1.92;;;8.90;99.90;;;;;;5028044;28;20044;-74
2023/04/11 06:12:08;;;;;;;4.80;1.85;;;9.00;99.90;;;;;;5033576;28;20029;-74
2023/04/11 06:14:35;;;;;;;4.13;1.65;;;9.00;99.90;;;;;;5032059;28;20037;-74
2023/04/11 06:17:01;;;;;;;5.82;2.08;;;9.00;99.90;;;;;;5026588;28;20038;-79
2023/04/11 06:19:27;;;;;;;5.55;1.65;;;9.10;99.90;;;;;;5028297;28;20033;-73
2023/04/11 06:21:53;;;;;;;5.47;1.60;;;9.10;99.90;;;;;;5033701;28;20026;-73
2023/04/11 06:24:34;;;;;;;3.15;1.45;;;9.20;99.90;;;;;;5029504;28;20348;-73
2023/04/11 06:27:01;;;;;;;3.30;1.45;;;9.20;92.70;;;;;;5027850;28;20060;-86
2023/04/11 06:29:27;;;;;;;3.33;1.00;;;9.30;61.20;;;;;;5033151;28;20037;-73
2023/04/11 06:31:53;;;;;;;7.15;1.60;;;9.30;52.90;;;;;;5032533;28;20386;-74
2023/04/11 06:34:19;;;;;;;6.13;1.67;;;9.50;14.40;;;;;;5024151;28;20037;-73
2023/04/11 06:36:48;;;;;;;8.15;1.92;;;9.50;1.00;;;;;;5033630;28;20033;-73
2023/04/11 06:39:17;;;;;;;6.03;0.95;;;9.60;1.00;;;;;;5030004;28;20038;-74
2023/04/11 06:41:45;;;;;;;9.13;1.70;;;9.60;1.00;;;;;;5032297;28;20059;-74
2023/04/11 06:44:15;;;;;;;5.85;1.77;;;9.60;1.00;;;;;;5030019;28;20064;-73
2023/04/11 06:46:41;;;;;;;7.40;1.48;;;9.60;1.00;;;;;;5033553;28;20418;-74
2023/04/11 06:49:08;;;;;;;5.55;2.08;;;9.80;1.00;;;;;;5031539;28;20034;-75
2023/04/11 06:51:35;;;;;;;11.73;1.60;;;9.90;1.00;;;;;;5030748;28;20414;-74
2023/04/11 06:54:02;;;;;;;10.00;1.27;;;10.00;1.00;;;;;;5029544;28;20375;-84
2023/04/11 06:56:28;;;;;;;9.07;2.13;;;10.10;1.00;;;;;;5034217;28;20033;-75
2023/04/11 06:58:54;;;;;;;7.45;1.98;;;10.20;1.00;;;;;;5032915;28;20033;-75
2023/04/11 07:01:24;;;;;;;6.63;1.23;;;10.50;1.00;;;;;;5032218;28;20040;-73
2023/04/11 07:03:53;;;;;;;8.07;1.40;;;10.50;1.00;;;;;;5032651;28;20039;-73
2023/04/11 07:06:20;;;;;;;6.43;1.25;;;10.40;1.00;;;;;;5029984;28;20041;-73
2023/04/11 07:08:46;;;;;;;4.00;1.08;;;10.10;1.00;;;;;;5030923;28;20037;-74
2023/04/11 07:11:12;;;;;;;6.80;1.30;;;9.90;1.00;;;;;;5022120;28;20056;-74
2023/04/11 07:13:38;;;;;;;5.95;1.45;;;10.00;1.00;;;;;;5031547;28;20374;-73
2023/04/11 07:16:04;;;;;;;9.05;2.58;;;10.10;1.00;;;;;;5029923;28;20045;-74
2023/04/11 07:18:31;;;;;;;10.25;1.85;;;10.00;1.00;;;;;;5029284;28;20475;-73
2023/04/11 07:20:57;;;;;;;3.45;1.25;;;10.10;1.00;;;;;;5027220;28;20041;-73
2023/04/11 07:23:23;;;;;;;8.40;1.50;;;10.30;1.00;;;;;;5032664;28;20042;-74
2023/04/11 07:25:49;;;;;;;7.18;2.20;;;10.50;1.00;;;;;;5032479;28;20382;-73
2023/04/11 07:28:16;;;;;;;3.50;1.13;;;10.70;1.00;;;;;;5021811;28;20045;-74
2023/04/11 07:30:42;;;;;;;6.90;1.63;;;10.80;1.00;;;;;;5032263;28;20049;-73
2023/04/11 07:33:08;;;;;;;7.95;1.80;;;11.00;1.00;;;;;;5029505;28;20467;-74
2023/04/11 07:35:34;;;;;;;8.05;1.50;;;11.00;1.00;;;;;;5030329;28;20049;-74
2023/04/11 07:38:00;;;;;;;7.97;1.30;;;11.00;99.90;;;;;;5019924;28;20037;-74
2023/04/11 07:40:27;;;;;;;3.50;0.93;;;11.40;99.90;;;;;;5026973;28;20454;-74
2023/04/11 07:42:53;;;;;;;4.88;2.03;;;11.80;1.00;;;;;;5028616;28;20049;-74
2023/04/11 07:45:20;;;;;;;12.32;1.83;;;12.00;99.90;;;;;;5022003;28;20030;-74
2023/04/11 07:47:47;;;;;;;4.93;1.02;;;11.70;99.90;;;;;;5020364;28;20038;-81
2023/04/11 07:50:13;;;;;;;6.15;1.00;;;11.60;99.90;;;;;;5023062;28;20033;-73
2023/04/11 07:52:39;;;;;;;3.75;1.30;;;12.20;99.90;;;;;;5024891;28;20032;-74
2023/04/11 07:55:05;;;;;;;5.35;2.00;;;12.00;99.90;;;;;;5023162;28;20033;-74
2023/04/11 07:57:32;;;;;;;6.82;1.00;;;11.70;99.90;;;;;;5028867;28;20037;-73
2023/04/11 07:59:58;;;;;;;4.43;1.67;;;11.70;99.90;;;;;;5027700;28;20360;-73
2023/04/11 08:02:25;;;;;;;5.38;1.30;;;11.50;99.90;;;;;;5036911;28;20609;-73
2023/04/11 08:04:51;;;;;;;6.30;0.98;;;11.60;99.90;;;;;;5031983;28;20044;-72
2023/04/11 08:07:17;;;;;;;5.05;0.95;;;11.90;99.90;;;;;;5025749;28;20037;-73
2023/04/11 08:09:43;;;;;;;4.35;0.95;;;11.90;99.90;;;;;;5030083;28;20029;-73
2023/04/11 08:12:09;;;;;;;4.30;0.85;;;12.30;99.90;;;;;;5024490;28;20391;-73
2023/04/11 08:14:36;;;;;;;8.82;1.67;;;12.40;99.90;;;;;;5023300;28;20036;-73
2023/04/11 08:17:02;;;;;;;4.38;1.42;;;12.80;99.90;;;;;;5029555;28;20033;-73
2023/04/11 08:19:30;;;;;;;7.43;1.00;;;13.00;99.90;;;;;;5026736;28;20376;-74
2023/04/11 08:21:56;;;;;;;8.40;1.25;;;13.30;99.90;;;;;;5018737;28;20403;-74
2023/04/11 08:24:22;;;;;;;8.27;2.00;;;13.10;99.90;;;;;;5032139;28;20056;-74
2023/04/11 08:26:48;;;;;;;7.38;2.53;;;13.20;99.90;;;;;;5032214;28;20125;-73
2023/04/11 08:29:14;;;;;;;5.68;1.52;;;13.10;91.80;;;;;;5025402;28;20042;-74
2023/04/11 08:31:44;;;;;;;5.57;1.15;;;12.40;99.90;;;;;;5031469;28;20040;-73
2023/04/11 08:34:11;;;;;;;7.43;1.13;;;12.40;99.90;;;;;;5030560;28;20033;-74
2023/04/11 08:36:37;;;;;;;7.28;0.90;;;12.20;99.90;;;;;;5031236;28;20034;-73
2023/04/11 08:39:03;;;;;;;4.10;1.20;;;12.30;99.90;;;;;;5026989;28;20117;-73
2023/04/11 08:41:30;;;;;;;5.72;1.83;;;12.60;99.90;;;;;;5030960;28;20060;-74
2023/04/11 08:43:56;;;;;;;7.25;1.10;;;12.50;99.90;;;;;;5028002;28;20029;-72
2023/04/11 08:46:23;;;;;;;5.75;1.08;;;12.30;99.90;;;;;;5027376;28;20037;-73
2023/04/11 08:48:50;;;;;;;5.00;1.23;;;12.40;94.60;;;;;;5026728;28;20037;-73
2023/04/11 08:51:24;;;;;;;5.18;1.10;;;12.50;98.30;;;;;;5025584;28;20033;-73
2023/04/11 08:53:52;;;;;;;9.50;2.20;;;12.40;99.90;;;;;;5030829;28;20041;-73
2023/04/11 08:56:18;;;;;;;10.10;2.40;;;11.90;99.90;;;;;;5028109;28;20034;-73
2023/04/11 08:58:45;;;;;;;7.05;1.63;;;12.20;99.90;;;;;;5022115;28;20049;-73
2023/04/11 09:01:25;;;;;;;5.43;1.60;;;12.70;99.90;;;;;;5018889;28;20042;-74
2023/04/11 09:03:52;;;;;;;9.23;2.58;;;13.40;99.90;;;;;;5030086;28;20045;-73
2023/04/11 09:06:18;;;;;;;7.95;1.58;;;13.60;80.20;;;;;;5031369;28;20366;-74
2023/04/11 09:08:44;;;;;;;7.53;1.52;;;13.50;84.30;;;;;;5023374;28;20042;-74
2023/04/11 09:11:10;;;;;;;5.07;2.15;;;13.30;83.60;;;;;;5039515;28;20061;-74
2023/04/11 09:13:36;;;;;;;6.50;1.60;;;13.80;88.70;;;;;;5031555;28;20034;-74
2023/04/11 09:16:08;;;;;;;5.50;1.63;;;13.80;80.90;;;;;;5026515;28;20030;-74
2023/04/11 09:18:45;;;;;;;7.65;1.40;;;13.30;77.10;;;;;;5030458;28;20513;-74
2023/04/11 09:21:14;;;;;;;5.60;1.30;;;13.70;69.70;;;;;;5030526;28;20037;-74
2023/04/11 09:23:40;;;;;;;3.92;0.82;;;14.40;66.50;;;;;;5017963;28;20034;-73
2023/04/11 09:26:08;;;;;;;3.97;1.10;;;13.50;72.60;;;;;;5027469;28;20046;-73
2023/04/11 09:28:51;;;;;;;5.70;1.20;;;13.00;94.70;;;;;;5020633;28;20034;-75
2023/04/11 09:31:18;;;;;;;5.78;1.50;;;12.70;99.90;;;;;;5028359;28;20057;-73
2023/04/11 09:33:58;;;;;;;5.72;1.55;;;12.30;99.90;;;;;;5019877;28;20030;-73
2023/04/11 09:36:28;;;;;;;7.50;1.77;;;12.10;99.90;;;;;;5025826;28;20049;-74
2023/04/11 09:38:54;;;;;;;3.65;1.10;;;12.00;99.90;;;;;;5027218;28;20458;-74
2023/04/11 09:41:35;;;;;;;5.53;1.30;;;11.30;99.90;;;;;;5022841;28;20041;-74
2023/04/11 09:44:02;;;;;;;5.38;2.17;;;10.80;99.90;;;;;;5031986;28;20386;-75
2023/04/11 09:46:28;;;;;;;6.28;1.17;;;10.80;99.90;;;;;;5029139;28;20034;-75
2023/04/11 09:48:55;;;;;;;3.92;1.00;;;10.90;99.90;;;;;;5033190;28;20038;-75
2023/04/11 09:51:21;;;;;;;4.95;0.70;;;11.20;99.90;;;;;;5031089;28;20038;-74
2023/04/11 09:53:48;;;;;;;5.47;1.70;;;11.30;99.90;;;;;;5039381;28;20034;-74
2023/04/11 09:56:14;;;;;;;4.93;1.23;;;11.40;99.90;;;;;;5034077;28;20040;-76
2023/04/11 09:58:40;;;;;;;2.72;0.95;;;11.30;99.90;;;;;;5027923;28;20045;-75
2023/04/11 10:01:09;;;;;;;2.90;0.70;;;11.50;99.90;;;;;;5028686;28;20033;-75
2023/04/11 10:03:37;;;;;;;5.40;0.80;;;11.70;99.90;;;;;;5034533;28;20034;-75
2023/04/11 10:06:15;;;;;;;5.55;1.75;;;12.20;99.90;;;;;;5031797;28;20029;-75
2023/04/11 10:08:41;;;;;;;7.90;1.15;;;12.70;99.90;;;;;;5026746;28;20045;-75
2023/04/11 10:11:10;;;;;;;8.00;1.30;;;12.70;99.90;;;;;;5034777;28;20037;-74
2023/04/11 10:13:40;;;;;;;6.13;1.30;;;12.60;99.90;;;;;;5027008;28;20037;-75
2023/04/11 10:16:08;;;;;;;3.72;1.40;;;12.40;99.90;;;;;;5016855;28;20486;-74
2023/04/11 10:18:35;;;;;;;8.20;1.30;;;12.40;99.90;;;;;;5028318;28;20038;-74
2023/04/11 10:21:04;;;;;;;7.15;0.93;;;11.90;99.90;;;;;;5032999;28;20056;-75
2023/04/11 10:24:08;;;;;;;4.63;1.10;;;11.70;99.90;;;;;;5029615;28;20498;-73
2023/04/11 10:26:54;;;;;;;4.05;0.90;;;11.80;99.90;;;;;;5030069;28;20029;-74
2023/04/11 10:32:14;;;;;;;5.50;1.45;;;12.80;99.90;;;;;;5034181;28;20037;-74
2023/04/11 10:34:49;;;;;;;6.25;1.02;;;12.80;99.90;;;;;;5033303;28;20041;-75
2023/04/11 10:37:29;;;;;;;4.45;1.50;;;12.70;99.90;;;;;;5028424;28;20029;-75
2023/04/11 10:40:11;;;;;;;4.05;0.98;;;12.90;99.90;;;;;;5024639;28;20048;-75
2023/04/11 10:42:42;;;;;;;7.47;1.08;;;12.80;99.90;;;;;;5029178;28;20057;-73
2023/04/11 10:45:17;;;;;;;6.40;0.98;;;12.70;99.90;;;;;;5027153;28;20045;-73
2023/04/11 10:48:06;;;;;;;10.52;1.83;;;12.60;99.90;;;;;;5028249;28;20040;-73
2023/04/11 10:50:39;;;;;;;7.30;1.30;;;12.10;99.90;;;;;;5029929;28;20037;-74
2023/04/11 10:53:32;;;;;;;8.20;1.17;;;12.00;99.90;;;;;;5027440;28;20398;-73
2023/04/11 10:56:00;;;;;;;7.93;1.65;;;12.20;99.90;;;;;;5027235;28;20030;-74
2023/04/11 10:58:35;;;;;;;3.97;0.73;;;12.40;99.90;;;;;;5025850;28;20044;-74
2023/04/11 11:01:10;;;;;;;6.03;1.45;;;12.90;99.90;;;;;;5028223;28;20470;-75
2023/04/11 11:03:37;;;;;;;2.00;0.90;;;13.30;99.90;;;;;;5027723;28;20038;-74
2023/04/11 11:06:05;;;;;;;3.47;0.85;;;13.20;99.90;;;;;;5029099;28;20030;-74
2023/04/11 11:08:37;;;;;;;4.55;0.82;;;13.30;83.70;;;;;;5031937;28;20503;-74
2023/04/11 11:11:07;;;;;;;3.17;0.82;;;13.50;63.20;;;;;;5024724;28;20340;-73
2023/04/11 11:13:41;;;;;;;5.90;0.85;;;13.50;53.50;;;;;;5032081;28;20255;-74
2023/04/11 11:16:11;;;;;;;2.33;0.60;;;13.20;39.20;;;;;;5024469;28;20034;-74
2023/04/11 11:18:38;;;;;;;1.85;0.50;;;13.30;40.60;;;;;;5030857;28;20033;-74
2023/04/11 11:21:04;;;;;;;2.40;0.43;;;13.50;40.90;;;;;;5029993;28;20041;-75
2023/04/11 11:23:31;;;;;;;3.75;0.82;;;13.70;46.50;;;;;;5025409;28;20037;-81
2023/04/11 11:25:59;;;;;;;2.53;0.75;;;14.00;45.80;;;;;;5026588;28;20032;-74
2023/04/11 11:28:25;;;;;;;4.82;1.02;;;13.90;42.40;;;;;;5030411;28;20478;-73
2023/04/11 11:30:53;;;;;;;4.22;0.70;;;13.70;46.50;;;;;;5031111;28;20494;-73
2023/04/11 11:33:25;;;;;;;5.10;1.00;;;13.70;45.80;;;;;;5024755;28;20029;-74
2023/04/11 11:36:00;;;;;;;9.85;1.25;;;13.40;51.30;;;;;;5026021;28;20033;-74
2023/04/11 11:38:29;;;;;;;4.97;0.93;;;13.10;55.00;;;;;;5027974;28;20419;-75
2023/04/11 11:40:56;;;;;;;6.43;1.23;;;12.80;67.90;;;;;;5032685;28;20109;-74
2023/04/11 11:43:26;;;;;;;4.70;1.00;;;12.60;89.60;;;;;;5032681;28;20046;-75
2023/04/11 11:46:16;;;;;;;4.35;1.02;;;12.40;99.90;;;;;;5023048;28;20088;-75
2023/04/11 11:48:56;;;;;;;3.25;0.63;;;12.50;99.90;;;;;;5027948;28;20050;-74
2023/04/11 11:51:22;;;;;;;7.93;1.43;;;13.00;99.90;;;;;;5025289;28;20399;-75
2023/04/11 11:54:07;;;;;;;3.05;1.35;;;13.50;93.80;;;;;;5032123;28;20061;-74
2023/04/11 11:56:34;;;;;;;4.18;1.25;;;13.30;90.80;;;;;;5030916;28;20486;-74
2023/04/11 11:59:03;;;;;;;7.20;1.45;;;13.40;94.60;;;;;;5026130;28;20042;-74
2023/04/11 12:01:35;;;;;;;3.95;0.90;;;13.80;93.60;;;;;;5028543;28;20041;-73
2023/04/11 12:04:04;;;;;;;4.95;0.88;;;14.10;63.90;;;;;;5029194;28;20471;-73
2023/04/11 12:06:31;;;;;;;4.25;0.60;;;13.80;58.30;;;;;;5030580;28;20040;-74
2023/04/11 12:09:15;;;;;;;1.98;0.63;;;14.00;56.40;;;;;;5032266;28;20052;-74
2023/04/11 12:11:44;;;;;;;2.58;0.50;;;14.20;41.70;;;;;;5030274;28;20053;-74
2023/04/11 12:14:21;;;;;;;1.35;0.40;;;14.30;27.80;;;;;;5029843;28;20084;-74
2023/04/11 12:16:48;;;;;;;1.50;0.43;;;14.40;25.30;;;;;;5031101;28;20040;-74
2023/04/11 12:19:15;;;;;;;2.47;0.40;;;14.50;22.70;;;;;;5025222;28;20078;-74
2023/04/11 12:21:41;;;;;;;4.18;1.55;;;14.50;15.40;;;;;;5026449;28;20046;-74
2023/04/11 12:24:07;;;;;;;4.18;1.00;;;14.40;15.70;;;;;;5025387;28;20044;-74
2023/04/11 12:26:33;;;;;;;4.55;1.48;;;14.40;15.30;;;;;;5024505;28;20026;-74
2023/04/11 12:29:02;;;;;;;6.00;0.88;;;14.50;15.60;;;;;;5027333;28;20042;-74
2023/04/11 12:31:28;;;;;;;5.90;2.03;;;14.80;19.60;;;;;;5028528;28;20422;-75
2023/04/11 12:33:54;;;;;;;3.75;1.10;;;14.90;23.00;;;;;;5026178;28;20049;-74
2023/04/11 12:36:20;;;;;;;4.32;0.95;;;14.90;21.10;;;;;;5023043;28;20037;-75
2023/04/11 12:38:46;;;;;;;6.18;0.95;;;14.60;22.00;;;;;;5019254;28;20037;-73
2023/04/11 12:41:13;;;;;;;2.67;0.90;;;14.70;22.70;;;;;;5030638;28;20427;-75
2023/04/11 12:43:39;;;;;;;4.82;0.80;;;15.00;20.10;;;;;;5037452;28;20471;-73
2023/04/11 12:46:06;;;;;;;6.13;1.50;;;15.10;21.60;;;;;;5029493;28;20044;-75
2023/04/11 12:48:32;;;;;;;2.25;0.68;;;14.60;22.20;;;;;;5025344;28;20040;-74
2023/04/11 12:50:58;;;;;;;3.00;1.13;;;14.70;20.40;;;;;;5027848;28;20033;-75
2023/04/11 12:53:24;;;;;;;2.63;0.80;;;14.80;19.90;;;;;;5030014;28;20047;-75
2023/04/11 12:55:50;;;;;;;2.95;0.85;;;15.10;20.90;;;;;;5024794;28;20029;-74
2023/04/11 12:58:17;;;;;;;2.80;1.23;;;15.30;16.40;;;;;;5031578;28;20044;-83
2023/04/11 13:00:43;;;;;;;5.25;1.13;;;15.50;12.90;;;;;;5025134;28;20048;-74
2023/04/11 13:03:09;;;;;;;4.40;0.70;;;15.90;11.80;;;;;;5025810;28;20042;-75